Airfield :
LOGIN :

Register | Disclaimer

   EN    FR    IT 

 










Legend :    VFR   Marginal VFR   IFR   Intensive IFR   Very Intensive IFR
Visi :
Ceiling :
>= 8 km
>= 3000ft
5 to 8 km
1000 to 3000 ft
1500m to 5 km
500 to 1000 ft
800 to 1500m
200 to 500 ft
< 800m
< 200 ft
Symbols :   Thunderstorms  Fog  Heavy snow  Heavy precipitations  Wind > 20 kt
SIGMETs :     Misc.  Thunderstorms  Icing  Turbulence  Mountain Waves  Volcanic Ashes







- Airport Elevation : 1079 ft


ETIK - Illesheim Air Base

CURRENT METAR :
  • 140956Z AUTO 28010KT 9999 SCT038 BKN060 22/12 A2999 RMK AO2 SLP146 T02240123 $

EXPIRED METARs :
  • 140927Z AUTO 25011KT 9999 BKN037 21/12 A2999 RMK AO2 WSHFT 25 SLP146 $
  • 140856Z AUTO 25015KT 9999 SCT036 BKN044 22/12 A2999 RMK AO2 SLP146 T02150123 52008 $
  • 140756Z AUTO 26014G16KT 9999 FEW026 20/13 A2998 RMK AO2 SLP143 T02020132 $

TAF TAF ETIK
Valid from the 14 at 05:00 until the 15 at 11:00 UTC


140501Z 1405/1511 VRB06KT 9999 FEW030 QNH2990INS
BECMG 1406/1407 28009KT 9999 SCT025 BKN040 QNH2992INS
BECMG 1420/1421 VRB06KT 9999 SCT015 BKN025 QNH2994INS
TEMPO 1501/1506 5000 BR BKN015
BECMG 1506/1507 30009KT 9999 FEW015 SCT025 QNH2998INS TX24/1415Z TN13/1405Z
No reported NOTAMs for that airfield.



MET'MAP, your aeronautical weather chart ! - Copyright ORBIFLY December 2007 - Disclaimer

ORBIFLY MET'MAP TEAM :

Programming & Development : Alexandra Zaïnal
Concept & Development : Baudouin d'Aumeries
Co-Development & Prog : Marc-Olivier Méhu
Technical & hardware support : Manuel Goepfert

Contact : metmap@orbifly.com




SOURCES & CREDITS :

   NOAA